sensor_id;sensor_type;location;lat;lon;timestamp;pressure;altitude;pressure_sealevel;temperature;humidity
10706;BME280;5404;42.656;23.336;2024-03-29T00:01:02;94548.50;;;10.00;53.83
10706;BME280;5404;42.656;23.336;2024-03-29T00:03:28;94561.13;;;9.87;53.58
10706;BME280;5404;42.656;23.336;2024-03-29T00:05:53;94535.41;;;9.64;53.23
10706;BME280;5404;42.656;23.336;2024-03-29T00:08:18;94558.19;;;10.01;54.10
10706;BME280;5404;42.656;23.336;2024-03-29T00:10:47;94567.44;;;10.07;53.71
10706;BME280;5404;42.656;23.336;2024-03-29T00:13:12;94380.34;;;8.87;54.29
10706;BME280;5404;42.656;23.336;2024-03-29T00:15:38;94544.75;;;10.17;53.44
10706;BME280;5404;42.656;23.336;2024-03-29T00:18:03;94560.06;;;10.31;52.29
10706;BME280;5404;42.656;23.336;2024-03-29T00:20:29;94570.31;;;10.23;53.12
10706;BME280;5404;42.656;23.336;2024-03-29T00:22:55;94561.63;;;10.05;53.71
10706;BME280;5404;42.656;23.336;2024-03-29T00:25:20;94555.22;;;9.92;53.80
10706;BME280;5404;42.656;23.336;2024-03-29T00:27:46;94575.19;;;9.81;54.53
10706;BME280;5404;42.656;23.336;2024-03-29T00:30:13;94570.56;;;9.78;54.11
10706;BME280;5404;42.656;23.336;2024-03-29T00:32:39;94584.78;;;9.90;53.90
10706;BME280;5404;42.656;23.336;2024-03-29T00:35:04;94579.72;;;9.92;53.96
10706;BME280;5404;42.656;23.336;2024-03-29T00:37:30;94594.19;;;9.85;54.89
10706;BME280;5404;42.656;23.336;2024-03-29T00:39:55;94581.28;;;9.62;55.18
10706;BME280;5404;42.656;23.336;2024-03-29T00:42:21;94592.25;;;9.55;56.03
10706;BME280;5404;42.656;23.336;2024-03-29T00:44:46;94593.41;;;9.54;56.42
10706;BME280;5404;42.656;23.336;2024-03-29T00:47:12;94588.69;;;9.28;56.89
10706;BME280;5404;42.656;23.336;2024-03-29T00:49:38;94609.69;;;9.24;57.12
10706;BME280;5404;42.656;23.336;2024-03-29T00:52:04;94589.38;;;9.35;56.29
10706;BME280;5404;42.656;23.336;2024-03-29T00:54:30;94595.44;;;9.50;55.07
10706;BME280;5404;42.656;23.336;2024-03-29T00:56:56;94587.50;;;9.63;55.69
10706;BME280;5404;42.656;23.336;2024-03-29T00:59:22;94603.09;;;9.59;55.25
10706;BME280;5404;42.656;23.336;2024-03-29T01:01:48;94601.13;;;9.59;55.00
10706;BME280;5404;42.656;23.336;2024-03-29T01:04:14;94600.31;;;9.62;54.75
10706;BME280;5404;42.656;23.336;2024-03-29T01:06:39;94604.28;;;9.58;54.97
10706;BME280;5404;42.656;23.336;2024-03-29T01:09:08;94597.94;;;9.34;55.95
10706;BME280;5404;42.656;23.336;2024-03-29T01:11:37;94601.91;;;9.29;56.30
10706;BME280;5404;42.656;23.336;2024-03-29T01:14:02;94604.78;;;9.12;56.61
10706;BME280;5404;42.656;23.336;2024-03-29T01:16:28;94614.91;;;9.45;56.57
10706;BME280;5404;42.656;23.336;2024-03-29T01:18:53;94611.59;;;9.30;56.22
10706;BME280;5404;42.656;23.336;2024-03-29T01:21:19;94602.16;;;9.38;55.51
10706;BME280;5404;42.656;23.336;2024-03-29T01:23:45;94611.66;;;9.57;54.90
10706;BME280;5404;42.656;23.336;2024-03-29T01:26:10;94619.53;;;9.48;55.76
10706;BME280;5404;42.656;23.336;2024-03-29T01:28:37;94603.91;;;9.22;55.80
10706;BME280;5404;42.656;23.336;2024-03-29T01:31:04;94524.19;;;8.64;56.50
10706;BME280;5404;42.656;23.336;2024-03-29T01:33:30;94618.97;;;9.30;56.40
10706;BME280;5404;42.656;23.336;2024-03-29T01:35:58;94608.34;;;9.42;55.41
10706;BME280;5404;42.656;23.336;2024-03-29T01:38:23;94571.41;;;9.11;55.52
10706;BME280;5404;42.656;23.336;2024-03-29T01:40:49;94620.25;;;9.52;55.31
10706;BME280;5404;42.656;23.336;2024-03-29T01:43:14;94620.06;;;9.36;55.59
10706;BME280;5404;42.656;23.336;2024-03-29T01:45:41;94627.72;;;9.78;53.92
10706;BME280;5404;42.656;23.336;2024-03-29T01:48:08;94630.63;;;9.64;54.47
10706;BME280;5404;42.656;23.336;2024-03-29T01:50:34;94634.84;;;9.35;56.25
10706;BME280;5404;42.656;23.336;2024-03-29T01:53:01;94643.94;;;9.18;56.44
10706;BME280;5404;42.656;23.336;2024-03-29T01:55:26;94651.00;;;9.12;57.39
10706;BME280;5404;42.656;23.336;2024-03-29T01:57:52;94546.13;;;8.43;57.11
10706;BME280;5404;42.656;23.336;2024-03-29T02:00:19;94574.75;;;8.51;57.84
10706;BME280;5404;42.656;23.336;2024-03-29T02:02:45;94572.09;;;8.44;57.58
10706;BME280;5404;42.656;23.336;2024-03-29T02:05:11;94600.06;;;8.82;55.66
10706;BME280;5404;42.656;23.336;2024-03-29T02:07:36;94676.28;;;9.80;53.49
10706;BME280;5404;42.656;23.336;2024-03-29T02:10:03;94627.81;;;9.71;52.70
10706;BME280;5404;42.656;23.336;2024-03-29T02:12:31;94692.09;;;9.89;53.36
10706;BME280;5404;42.656;23.336;2024-03-29T02:14:56;94702.53;;;9.60;56.46
10706;BME280;5404;42.656;23.336;2024-03-29T02:17:23;94691.78;;;9.12;57.54
10706;BME280;5404;42.656;23.336;2024-03-29T02:19:48;94702.31;;;9.06;57.20
10706;BME280;5404;42.656;23.336;2024-03-29T02:22:15;94713.25;;;8.99;58.05
10706;BME280;5404;42.656;23.336;2024-03-29T02:24:41;94718.41;;;8.86;58.30
10706;BME280;5404;42.656;23.336;2024-03-29T02:27:06;94723.28;;;8.54;59.44
10706;BME280;5404;42.656;23.336;2024-03-29T02:29:32;94729.97;;;8.39;60.40
10706;BME280;5404;42.656;23.336;2024-03-29T02:31:58;94755.59;;;8.34;60.66
10706;BME280;5404;42.656;23.336;2024-03-29T02:34:23;94732.00;;;8.24;61.01
10706;BME280;5404;42.656;23.336;2024-03-29T02:36:49;94748.63;;;8.26;61.35
10706;BME280;5404;42.656;23.336;2024-03-29T02:39:15;94708.47;;;8.00;60.07
10706;BME280;5404;42.656;23.336;2024-03-29T02:41:40;94758.19;;;8.55;58.92
10706;BME280;5404;42.656;23.336;2024-03-29T02:44:05;94750.53;;;8.43;59.91
10706;BME280;5404;42.656;23.336;2024-03-29T02:46:31;94741.66;;;8.36;60.37
10706;BME280;5404;42.656;23.336;2024-03-29T02:48:56;94749.03;;;8.32;60.14
10706;BME280;5404;42.656;23.336;2024-03-29T02:51:22;94746.66;;;8.41;59.51
10706;BME280;5404;42.656;23.336;2024-03-29T02:53:47;94757.91;;;8.39;59.11
10706;BME280;5404;42.656;23.336;2024-03-29T02:56:13;94757.16;;;8.35;59.97
10706;BME280;5404;42.656;23.336;2024-03-29T02:58:40;94769.50;;;8.47;59.56
10706;BME280;5404;42.656;23.336;2024-03-29T03:01:08;94758.63;;;8.50;59.02
10706;BME280;5404;42.656;23.336;2024-03-29T03:03:35;94765.56;;;8.55;59.27
10706;BME280;5404;42.656;23.336;2024-03-29T03:06:01;94759.34;;;8.58;59.12
10706;BME280;5404;42.656;23.336;2024-03-29T03:08:29;94762.03;;;8.65;58.76
10706;BME280;5404;42.656;23.336;2024-03-29T03:11:13;94763.97;;;8.61;58.45
10706;BME280;5404;42.656;23.336;2024-03-29T03:13:38;94770.22;;;8.58;58.64
10706;BME280;5404;42.656;23.336;2024-03-29T03:16:04;94788.84;;;8.56;59.89
10706;BME280;5404;42.656;23.336;2024-03-29T03:18:30;94748.63;;;8.37;59.16
10706;BME280;5404;42.656;23.336;2024-03-29T03:20:56;94784.31;;;8.32;60.34
10706;BME280;5404;42.656;23.336;2024-03-29T03:23:25;94784.69;;;8.26;59.89
10706;BME280;5404;42.656;23.336;2024-03-29T03:25:58;94785.88;;;8.25;60.18
10706;BME280;5404;42.656;23.336;2024-03-29T03:28:24;94796.72;;;8.25;60.71
10706;BME280;5404;42.656;23.336;2024-03-29T03:30:50;94785.19;;;8.07;60.36
10706;BME280;5404;42.656;23.336;2024-03-29T03:33:16;94796.03;;;8.07;61.02
10706;BME280;5404;42.656;23.336;2024-03-29T03:35:42;94797.59;;;8.01;60.54
10706;BME280;5404;42.656;23.336;2024-03-29T03:38:07;94792.91;;;8.12;60.49
10706;BME280;5404;42.656;23.336;2024-03-29T03:40:37;94739.56;;;7.81;59.63
10706;BME280;5404;42.656;23.336;2024-03-29T03:43:03;94812.66;;;8.31;59.54
10706;BME280;5404;42.656;23.336;2024-03-29T03:45:34;94813.44;;;8.20;60.76
10706;BME280;5404;42.656;23.336;2024-03-29T03:47:59;94758.94;;;7.69;60.56
10706;BME280;5404;42.656;23.336;2024-03-29T03:50:24;94830.06;;;8.33;60.27
10706;BME280;5404;42.656;23.336;2024-03-29T03:52:50;94825.06;;;8.17;60.65
10706;BME280;5404;42.656;23.336;2024-03-29T03:55:15;94776.44;;;7.43;62.78
10706;BME280;5404;42.656;23.336;2024-03-29T03:57:41;94841.84;;;7.77;62.14
10706;BME280;5404;42.656;23.336;2024-03-29T04:00:07;94837.22;;;7.67;63.23
10706;BME280;5404;42.656;23.336;2024-03-29T04:02:32;94835.69;;;7.52;63.88
10706;BME280;5404;42.656;23.336;2024-03-29T04:04:58;94850.41;;;7.33;65.15
10706;BME280;5404;42.656;23.336;2024-03-29T04:07:23;94848.09;;;7.53;64.28
10706;BME280;5404;42.656;23.336;2024-03-29T04:09:52;94832.13;;;7.90;61.90
10706;BME280;5404;42.656;23.336;2024-03-29T04:12:18;94834.78;;;8.04;61.26
10706;BME280;5404;42.656;23.336;2024-03-29T04:14:43;94836.38;;;7.98;61.23
10706;BME280;5404;42.656;23.336;2024-03-29T04:17:09;94872.75;;;8.22;60.57
10706;BME280;5404;42.656;23.336;2024-03-29T04:19:35;94801.94;;;7.77;60.37
10706;BME280;5404;42.656;23.336;2024-03-29T04:22:00;94860.28;;;8.42;59.51
10706;BME280;5404;42.656;23.336;2024-03-29T04:24:27;94871.53;;;8.41;60.15
10706;BME280;5404;42.656;23.336;2024-03-29T04:26:53;94880.47;;;8.27;60.64
10706;BME280;5404;42.656;23.336;2024-03-29T04:29:18;94862.72;;;8.08;60.54
10706;BME280;5404;42.656;23.336;2024-03-29T04:31:45;94880.94;;;8.04;61.08
10706;BME280;5404;42.656;23.336;2024-03-29T04:34:11;94803.16;;;7.44;62.12
10706;BME280;5404;42.656;23.336;2024-03-29T04:36:36;94892.97;;;7.85;62.49
10706;BME280;5404;42.656;23.336;2024-03-29T04:39:01;94881.38;;;7.78;62.65
10706;BME280;5404;42.656;23.336;2024-03-29T04:41:27;94882.13;;;7.75;62.98
10706;BME280;5404;42.656;23.336;2024-03-29T04:43:52;94882.16;;;7.78;62.34
10706;BME280;5404;42.656;23.336;2024-03-29T04:46:18;94887.53;;;7.82;62.63
10706;BME280;5404;42.656;23.336;2024-03-29T04:48:43;94763.31;;;6.85;62.78
10706;BME280;5404;42.656;23.336;2024-03-29T04:51:11;94910.78;;;8.04;62.02
10706;BME280;5404;42.656;23.336;2024-03-29T04:53:39;94925.13;;;8.01;63.40
10706;BME280;5404;42.656;23.336;2024-03-29T04:56:05;94878.66;;;7.71;62.33
10706;BME280;5404;42.656;23.336;2024-03-29T04:58:31;94933.63;;;8.10;62.01
10706;BME280;5404;42.656;23.336;2024-03-29T05:00:57;94925.44;;;8.49;60.47
10706;BME280;5404;42.656;23.336;2024-03-29T05:03:22;94942.88;;;8.59;61.05
10706;BME280;5404;42.656;23.336;2024-03-29T05:05:49;94931.19;;;8.69;60.51
10706;BME280;5404;42.656;23.336;2024-03-29T05:08:15;94926.50;;;8.77;60.00
10706;BME280;5404;42.656;23.336;2024-03-29T05:10:41;94853.34;;;8.38;59.57
10706;BME280;5404;42.656;23.336;2024-03-29T05:13:07;94927.50;;;9.08;59.21
10706;BME280;5404;42.656;23.336;2024-03-29T05:15:33;94939.81;;;9.30;58.43
10706;BME280;5404;42.656;23.336;2024-03-29T05:17:58;94944.41;;;9.40;58.45
10706;BME280;5404;42.656;23.336;2024-03-29T05:20:24;94938.75;;;9.68;56.86
10706;BME280;5404;42.656;23.336;2024-03-29T05:22:49;94936.81;;;9.72;57.69
10706;BME280;5404;42.656;23.336;2024-03-29T05:25:15;94932.53;;;9.71;59.24
10706;BME280;5404;42.656;23.336;2024-03-29T05:27:40;94944.09;;;9.82;58.08
10706;BME280;5404;42.656;23.336;2024-03-29T05:30:07;94871.78;;;9.37;59.27
10706;BME280;5404;42.656;23.336;2024-03-29T05:32:34;94957.59;;;9.97;59.20
10706;BME280;5404;42.656;23.336;2024-03-29T05:35:00;94952.47;;;10.02;58.29
10706;BME280;5404;42.656;23.336;2024-03-29T05:37:25;94955.19;;;10.06;57.59
10706;BME280;5404;42.656;23.336;2024-03-29T05:39:54;94958.63;;;10.13;57.54
10706;BME280;5404;42.656;23.336;2024-03-29T05:42:25;94960.84;;;10.29;57.14
10706;BME280;5404;42.656;23.336;2024-03-29T05:44:51;94958.41;;;10.38;56.14
10706;BME280;5404;42.656;23.336;2024-03-29T05:47:16;94950.44;;;10.54;55.33
10706;BME280;5404;42.656;23.336;2024-03-29T05:49:42;94943.75;;;10.63;54.67
10706;BME280;5404;42.656;23.336;2024-03-29T05:52:07;94950.13;;;10.83;54.45
10706;BME280;5404;42.656;23.336;2024-03-29T05:54:33;94916.88;;;10.95;52.69
10706;BME280;5404;42.656;23.336;2024-03-29T05:56:58;94948.78;;;11.28;52.22
10706;BME280;5404;42.656;23.336;2024-03-29T05:59:23;94946.75;;;11.36;51.92
10706;BME280;5404;42.656;23.336;2024-03-29T06:01:49;94954.28;;;11.52;51.18
10706;BME280;5404;42.656;23.336;2024-03-29T06:04:14;94954.81;;;11.70;51.33
10706;BME280;5404;42.656;23.336;2024-03-29T06:06:44;94981.53;;;11.86;50.83
10706;BME280;5404;42.656;23.336;2024-03-29T06:09:10;94959.63;;;12.12;49.71
10706;BME280;5404;42.656;23.336;2024-03-29T06:11:35;94968.94;;;12.38;49.31
10706;BME280;5404;42.656;23.336;2024-03-29T06:14:01;94970.72;;;12.48;48.52
10706;BME280;5404;42.656;23.336;2024-03-29T06:16:27;94969.22;;;12.67;48.17
10706;BME280;5404;42.656;23.336;2024-03-29T06:19:12;94959.47;;;12.86;47.96
10706;BME280;5404;42.656;23.336;2024-03-29T06:21:38;94962.84;;;12.93;47.54
10706;BME280;5404;42.656;23.336;2024-03-29T06:24:10;94903.53;;;12.71;47.09
10706;BME280;5404;42.656;23.336;2024-03-29T06:26:40;94958.88;;;13.18;46.71
10706;BME280;5404;42.656;23.336;2024-03-29T06:29:05;94965.84;;;13.39;46.24
10706;BME280;5404;42.656;23.336;2024-03-29T06:31:31;94972.63;;;13.50;46.36
10706;BME280;5404;42.656;23.336;2024-03-29T06:34:00;94967.19;;;13.66;45.61
10706;BME280;5404;42.656;23.336;2024-03-29T06:36:26;94963.72;;;13.82;45.88
10706;BME280;5404;42.656;23.336;2024-03-29T06:38:54;94967.59;;;13.85;44.67
10706;BME280;5404;42.656;23.336;2024-03-29T06:41:20;94959.63;;;13.90;44.51
10706;BME280;5404;42.656;23.336;2024-03-29T06:43:45;94950.53;;;13.93;44.37
10706;BME280;5404;42.656;23.336;2024-03-29T06:46:12;94962.38;;;14.06;44.45
10706;BME280;5404;42.656;23.336;2024-03-29T06:48:37;94963.81;;;14.11;44.17
10706;BME280;5404;42.656;23.336;2024-03-29T06:51:03;94965.38;;;14.12;43.96
10706;BME280;5404;42.656;23.336;2024-03-29T06:53:29;94973.66;;;14.25;44.06
10706;BME280;5404;42.656;23.336;2024-03-29T06:55:55;94966.66;;;14.40;43.36
10706;BME280;5404;42.656;23.336;2024-03-29T06:58:23;94958.50;;;14.53;43.08
10706;BME280;5404;42.656;23.336;2024-03-29T07:00:49;94966.53;;;14.60;42.96
10706;BME280;5404;42.656;23.336;2024-03-29T07:03:15;94971.50;;;14.65;43.05
10706;BME280;5404;42.656;23.336;2024-03-29T07:05:42;94927.84;;;14.41;42.85
10706;BME280;5404;42.656;23.336;2024-03-29T07:08:07;94978.31;;;14.89;42.85
10706;BME280;5404;42.656;23.336;2024-03-29T07:10:33;94976.69;;;14.92;42.37
10706;BME280;5404;42.656;23.336;2024-03-29T07:12:58;94986.44;;;14.93;41.88
10706;BME280;5404;42.656;23.336;2024-03-29T07:15:24;94989.81;;;14.84;42.18
10706;BME280;5404;42.656;23.336;2024-03-29T07:17:49;94998.53;;;14.95;42.31
10706;BME280;5404;42.656;23.336;2024-03-29T07:20:16;94988.13;;;15.03;42.52
10706;BME280;5404;42.656;23.336;2024-03-29T07:22:42;94990.44;;;15.04;42.58
10706;BME280;5404;42.656;23.336;2024-03-29T07:25:08;94994.00;;;15.17;42.13
10706;BME280;5404;42.656;23.336;2024-03-29T07:27:34;94932.97;;;14.84;42.01
10706;BME280;5404;42.656;23.336;2024-03-29T07:30:02;94906.59;;;14.74;42.06
10706;BME280;5404;42.656;23.336;2024-03-29T07:32:29;94982.69;;;15.28;41.84
10706;BME280;5404;42.656;23.336;2024-03-29T07:34:55;94910.72;;;14.95;42.06
10706;BME280;5404;42.656;23.336;2024-03-29T07:37:26;94959.09;;;15.31;41.12
10706;BME280;5404;42.656;23.336;2024-03-29T07:39:51;94985.97;;;15.64;41.12
10706;BME280;5404;42.656;23.336;2024-03-29T07:42:17;94932.28;;;15.22;41.87
10706;BME280;5404;42.656;23.336;2024-03-29T07:44:44;94964.69;;;15.56;41.56
10706;BME280;5404;42.656;23.336;2024-03-29T07:47:10;94982.59;;;15.73;40.39
10706;BME280;5404;42.656;23.336;2024-03-29T07:49:38;94976.75;;;15.71;40.63
10706;BME280;5404;42.656;23.336;2024-03-29T07:52:04;94984.81;;;15.91;40.40
10706;BME280;5404;42.656;23.336;2024-03-29T07:54:31;94978.31;;;15.97;40.07
10706;BME280;5404;42.656;23.336;2024-03-29T07:56:57;94975.00;;;16.02;39.91
10706;BME280;5404;42.656;23.336;2024-03-29T07:59:22;94981.16;;;16.19;38.81
10706;BME280;5404;42.656;23.336;2024-03-29T08:01:48;94992.25;;;16.28;39.41
10706;BME280;5404;42.656;23.336;2024-03-29T08:04:13;94989.81;;;16.43;39.45
10706;BME280;5404;42.656;23.336;2024-03-29T08:06:39;94976.06;;;16.43;39.08
10706;BME280;5404;42.656;23.336;2024-03-29T08:09:06;94911.97;;;16.21;39.19
10706;BME280;5404;42.656;23.336;2024-03-29T08:11:32;94978.84;;;16.77;39.33
10706;BME280;5404;42.656;23.336;2024-03-29T08:13:57;94979.72;;;16.87;39.10
10706;BME280;5404;42.656;23.336;2024-03-29T08:16:23;94976.22;;;17.08;38.56
10706;BME280;5404;42.656;23.336;2024-03-29T08:18:48;94975.19;;;17.15;38.17
10706;BME280;5404;42.656;23.336;2024-03-29T08:21:14;94958.81;;;17.11;37.89
10706;BME280;5404;42.656;23.336;2024-03-29T08:23:40;94902.47;;;16.81;37.94
10706;BME280;5404;42.656;23.336;2024-03-29T08:26:06;94965.44;;;17.23;37.75
10706;BME280;5404;42.656;23.336;2024-03-29T08:28:32;94963.81;;;17.26;37.66
10706;BME280;5404;42.656;23.336;2024-03-29T08:30:59;94874.41;;;16.96;37.59
10706;BME280;5404;42.656;23.336;2024-03-29T08:33:24;94947.63;;;17.37;37.25
10706;BME280;5404;42.656;23.336;2024-03-29T08:35:50;94952.56;;;17.64;37.19
10706;BME280;5404;42.656;23.336;2024-03-29T08:38:15;94931.16;;;17.68;37.03
10706;BME280;5404;42.656;23.336;2024-03-29T08:40:41;94948.75;;;17.70;37.31
10706;BME280;5404;42.656;23.336;2024-03-29T08:43:09;94939.75;;;17.79;37.13
10706;BME280;5404;42.656;23.336;2024-03-29T08:45:35;94938.31;;;17.96;36.74
10706;BME280;5404;42.656;23.336;2024-03-29T08:48:08;94940.47;;;18.01;36.77
10706;BME280;5404;42.656;23.336;2024-03-29T08:50:34;94938.72;;;18.25;36.41
10706;BME280;5404;42.656;23.336;2024-03-29T08:53:03;94940.63;;;18.56;36.09
10706;BME280;5404;42.656;23.336;2024-03-29T08:55:32;94863.31;;;18.37;34.96
10706;BME280;5404;42.656;23.336;2024-03-29T08:57:58;94931.13;;;18.93;34.72
10706;BME280;5404;42.656;23.336;2024-03-29T09:00:27;94925.63;;;18.93;34.05
10706;BME280;5404;42.656;23.336;2024-03-29T09:02:53;94921.31;;;19.10;34.21
10706;BME280;5404;42.656;23.336;2024-03-29T09:05:19;94919.28;;;19.20;34.42
10706;BME280;5404;42.656;23.336;2024-03-29T09:07:44;94917.28;;;19.39;33.16
10706;BME280;5404;42.656;23.336;2024-03-29T09:10:11;94916.16;;;19.54;32.85
10706;BME280;5404;42.656;23.336;2024-03-29T09:12:37;94904.69;;;20.22;32.14
10706;BME280;5404;42.656;23.336;2024-03-29T09:15:04;94894.22;;;21.71;30.36
10706;BME280;5404;42.656;23.336;2024-03-29T09:17:34;94898.72;;;23.65;26.36
10706;BME280;5404;42.656;23.336;2024-03-29T09:19:59;94883.53;;;24.35;25.21
10706;BME280;5404;42.656;23.336;2024-03-29T09:22:25;94885.34;;;24.01;25.43
10706;BME280;5404;42.656;23.336;2024-03-29T09:24:50;94830.19;;;25.29;24.21
10706;BME280;5404;42.656;23.336;2024-03-29T09:27:16;94883.34;;;26.76;23.33
10706;BME280;5404;42.656;23.336;2024-03-29T09:29:42;94886.28;;;27.88;21.40
10706;BME280;5404;42.656;23.336;2024-03-29T09:32:08;94869.94;;;28.76;20.65
10706;BME280;5404;42.656;23.336;2024-03-29T09:34:34;94868.00;;;28.41;21.27
10706;BME280;5404;42.656;23.336;2024-03-29T09:36:59;94862.97;;;28.58;20.02
10706;BME280;5404;42.656;23.336;2024-03-29T09:39:25;94821.47;;;28.32;20.57
10706;BME280;5404;42.656;23.336;2024-03-29T09:41:50;94866.75;;;28.06;21.03
10706;BME280;5404;42.656;23.336;2024-03-29T09:44:16;94858.53;;;28.14;21.18
10706;BME280;5404;42.656;23.336;2024-03-29T09:46:43;94852.41;;;28.46;20.90
10706;BME280;5404;42.656;23.336;2024-03-29T09:49:09;94811.53;;;29.31;19.95
10706;BME280;5404;42.656;23.336;2024-03-29T09:51:37;94839.53;;;30.19;19.41
10706;BME280;5404;42.656;23.336;2024-03-29T09:54:05;94768.97;;;29.90;18.51
10706;BME280;5404;42.656;23.336;2024-03-29T09:56:33;94839.00;;;30.47;18.52
10706;BME280;5404;42.656;23.336;2024-03-29T09:58:59;94831.47;;;31.28;18.20
10706;BME280;5404;42.656;23.336;2024-03-29T10:01:27;94827.00;;;30.46;18.50
10706;BME280;5404;42.656;23.336;2024-03-29T10:03:53;94844.19;;;29.52;19.36
10706;BME280;5404;42.656;23.336;2024-03-29T10:06:20;94837.50;;;29.55;19.35
10706;BME280;5404;42.656;23.336;2024-03-29T10:08:46;94838.16;;;29.93;19.30
10706;BME280;5404;42.656;23.336;2024-03-29T10:11:14;94832.13;;;29.01;19.29
10706;BME280;5404;42.656;23.336;2024-03-29T10:13:42;94838.41;;;29.45;19.53
10706;BME280;5404;42.656;23.336;2024-03-29T10:16:10;94836.44;;;29.02;19.51
10706;BME280;5404;42.656;23.336;2024-03-29T10:18:36;94825.53;;;28.56;19.90
10706;BME280;5404;42.656;23.336;2024-03-29T10:21:03;94824.78;;;30.00;18.86
10706;BME280;5404;42.656;23.336;2024-03-29T10:23:30;94823.78;;;29.65;18.92
10706;BME280;5404;42.656;23.336;2024-03-29T10:25:57;94821.22;;;28.73;20.29
10706;BME280;5404;42.656;23.336;2024-03-29T10:28:23;94826.66;;;28.66;20.11
10706;BME280;5404;42.656;23.336;2024-03-29T10:30:49;94831.69;;;28.73;19.77
10706;BME280;5404;42.656;23.336;2024-03-29T10:33:16;94788.50;;;28.14;20.77
10706;BME280;5404;42.656;23.336;2024-03-29T10:35:44;94759.66;;;27.05;21.11
10706;BME280;5404;42.656;23.336;2024-03-29T10:38:11;94827.13;;;27.32;20.87
10706;BME280;5404;42.656;23.336;2024-03-29T10:40:38;94817.97;;;27.66;20.67
10706;BME280;5404;42.656;23.336;2024-03-29T10:43:09;94811.41;;;29.23;20.06
10706;BME280;5404;42.656;23.336;2024-03-29T10:45:38;94802.84;;;31.03;18.42
10706;BME280;5404;42.656;23.336;2024-03-29T10:48:04;94772.38;;;30.42;18.37
10706;BME280;5404;42.656;23.336;2024-03-29T10:50:38;94812.53;;;29.52;19.09
10706;BME280;5404;42.656;23.336;2024-03-29T10:53:06;94806.50;;;29.61;19.36
10706;BME280;5404;42.656;23.336;2024-03-29T10:55:36;94798.75;;;29.16;20.13
10706;BME280;5404;42.656;23.336;2024-03-29T10:58:04;94797.59;;;29.06;19.52
10706;BME280;5404;42.656;23.336;2024-03-29T11:00:34;94807.44;;;27.07;21.74
10706;BME280;5404;42.656;23.336;2024-03-29T11:06:01;94720.59;;;26.88;21.71
10706;BME280;5404;42.656;23.336;2024-03-29T11:08:32;94783.31;;;29.74;19.70
10706;BME280;5404;42.656;23.336;2024-03-29T11:11:01;94790.31;;;29.67;19.34
10706;BME280;5404;42.656;23.336;2024-03-29T11:16:14;94788.31;;;28.06;21.20
10706;BME280;5404;42.656;23.336;2024-03-29T11:18:42;94784.59;;;28.90;20.71
10706;BME280;5404;42.656;23.336;2024-03-29T11:21:08;94787.38;;;29.59;20.03
10706;BME280;5404;42.656;23.336;2024-03-29T11:23:35;94782.44;;;29.98;19.30
10706;BME280;5404;42.656;23.336;2024-03-29T11:26:01;94784.97;;;29.50;19.96
10706;BME280;5404;42.656;23.336;2024-03-29T11:28:31;94774.72;;;29.02;20.42
10706;BME280;5404;42.656;23.336;2024-03-29T11:31:06;94775.94;;;27.42;22.54
10706;BME280;5404;42.656;23.336;2024-03-29T11:36:19;94777.13;;;28.74;20.96
10706;BME280;5404;42.656;23.336;2024-03-29T11:38:46;94783.00;;;28.52;21.22
10706;BME280;5404;42.656;23.336;2024-03-29T11:41:13;94782.19;;;28.08;21.32
10706;BME280;5404;42.656;23.336;2024-03-29T11:43:39;94787.09;;;28.02;21.70
10706;BME280;5404;42.656;23.336;2024-03-29T11:46:09;94775.53;;;28.35;21.20
10706;BME280;5404;42.656;23.336;2024-03-29T11:48:35;94747.19;;;27.36;22.09
10706;BME280;5404;42.656;23.336;2024-03-29T11:51:03;94780.56;;;27.70;22.26
10706;BME280;5404;42.656;23.336;2024-03-29T11:53:29;94773.03;;;27.18;22.54
10706;BME280;5404;42.656;23.336;2024-03-29T11:56:00;94771.28;;;26.68;23.41
10706;BME280;5404;42.656;23.336;2024-03-29T11:58:27;94758.38;;;24.96;25.18
10706;BME280;5404;42.656;23.336;2024-03-29T12:00:54;94771.94;;;24.61;26.31
10706;BME280;5404;42.656;23.336;2024-03-29T12:03:21;94763.31;;;24.58;25.92
10706;BME280;5404;42.656;23.336;2024-03-29T12:05:50;94764.13;;;24.11;26.26
10706;BME280;5404;42.656;23.336;2024-03-29T12:08:16;94764.63;;;23.61;27.18
10706;BME280;5404;42.656;23.336;2024-03-29T12:10:42;94775.22;;;23.57;27.50
10706;BME280;5404;42.656;23.336;2024-03-29T12:13:08;94757.84;;;23.36;28.02
10706;BME280;5404;42.656;23.336;2024-03-29T12:15:34;94764.91;;;23.00;27.79
10706;BME280;5404;42.656;23.336;2024-03-29T12:18:01;94768.47;;;23.07;28.33
10706;BME280;5404;42.656;23.336;2024-03-29T12:20:31;94760.19;;;23.12;28.27
10706;BME280;5404;42.656;23.336;2024-03-29T12:23:01;94768.47;;;23.07;28.49
10706;BME280;5404;42.656;23.336;2024-03-29T12:25:30;94768.91;;;22.74;28.68
10706;BME280;5404;42.656;23.336;2024-03-29T12:27:57;94697.03;;;22.09;29.15
10706;BME280;5404;42.656;23.336;2024-03-29T12:30:22;94745.75;;;23.08;28.70
10706;BME280;5404;42.656;23.336;2024-03-29T12:32:48;94749.25;;;23.34;28.15
10706;BME280;5404;42.656;23.336;2024-03-29T12:35:27;94757.34;;;23.38;28.25
10706;BME280;5404;42.656;23.336;2024-03-29T12:37:52;94752.34;;;23.42;28.50
10706;BME280;5404;42.656;23.336;2024-03-29T12:40:19;94751.84;;;23.43;28.21
10706;BME280;5404;42.656;23.336;2024-03-29T12:42:51;94759.31;;;23.58;28.17
10706;BME280;5404;42.656;23.336;2024-03-29T12:45:20;94681.59;;;23.12;28.60
10706;BME280;5404;42.656;23.336;2024-03-29T12:47:46;94752.69;;;23.55;27.92
10706;BME280;5404;42.656;23.336;2024-03-29T12:50:29;94736.53;;;23.59;27.69
10706;BME280;5404;42.656;23.336;2024-03-29T12:52:57;94737.81;;;23.58;27.71
10706;BME280;5404;42.656;23.336;2024-03-29T12:55:23;94749.19;;;23.60;27.77
10706;BME280;5404;42.656;23.336;2024-03-29T12:57:50;94743.69;;;23.71;27.42
10706;BME280;5404;42.656;23.336;2024-03-29T13:00:21;94744.97;;;23.70;27.23
10706;BME280;5404;42.656;23.336;2024-03-29T13:02:47;94741.03;;;23.94;27.54
10706;BME280;5404;42.656;23.336;2024-03-29T13:05:12;94738.72;;;24.40;27.26
10706;BME280;5404;42.656;23.336;2024-03-29T13:07:38;94680.22;;;24.29;26.00
10706;BME280;5404;42.656;23.336;2024-03-29T13:10:04;94730.44;;;24.74;25.90